createdAt,value
2023-05-08T00:00:50.696Z,18.60
2023-05-08T00:03:19.362Z,18.60
2023-05-08T00:05:47.409Z,18.60
2023-05-08T00:08:16.489Z,18.70
2023-05-08T00:10:48.536Z,18.70
2023-05-08T00:13:16.966Z,18.70
2023-05-08T00:15:45.086Z,18.60
2023-05-08T00:18:14.005Z,18.60
2023-05-08T00:20:44.643Z,18.50
2023-05-08T00:23:12.663Z,18.60
2023-05-08T00:25:40.678Z,18.60
2023-05-08T00:28:10.511Z,18.50
2023-05-08T00:30:40.614Z,18.50
2023-05-08T00:33:09.199Z,18.40
2023-05-08T00:35:37.314Z,18.50
2023-05-08T00:38:05.858Z,18.50
2023-05-08T00:40:34.346Z,18.40
2023-05-08T00:43:04.231Z,18.40
2023-05-08T00:45:37.406Z,18.40
2023-05-08T00:48:05.942Z,18.50
2023-05-08T00:50:34.267Z,18.40
2023-05-08T00:53:04.197Z,18.40
2023-05-08T00:55:33.750Z,18.40
2023-05-08T00:58:02.217Z,18.40
2023-05-08T01:00:34.134Z,18.30
2023-05-08T01:03:02.654Z,18.30
2023-05-08T01:05:31.129Z,18.20
2023-05-08T01:08:00.166Z,18.20
2023-05-08T01:10:37.740Z,18.20
2023-05-08T01:13:10.432Z,18.20
2023-05-08T01:15:46.662Z,18.30
2023-05-08T01:18:18.735Z,18.30
2023-05-08T01:20:58.057Z,18.20
2023-05-08T01:23:51.391Z,18.20
2023-05-08T01:27:11.897Z,18.10
2023-05-08T01:30:08.464Z,18.00
2023-05-08T01:32:41.956Z,18.00
2023-05-08T01:35:18.692Z,18.00
2023-05-08T01:37:53.909Z,17.90
2023-05-08T01:40:29.904Z,17.90
2023-05-08T01:43:07.296Z,18.00
2023-05-08T01:45:48.028Z,18.00
2023-05-08T01:48:20.692Z,18.00
2023-05-08T01:50:54.847Z,17.90
2023-05-08T01:53:30.499Z,17.90
2023-05-08T01:56:01.730Z,17.90
2023-05-08T01:58:34.392Z,17.90
2023-05-08T02:01:03.527Z,17.90
2023-05-08T02:03:36.083Z,17.90
2023-05-08T02:06:05.538Z,17.90
2023-05-08T02:08:35.919Z,17.90
2023-05-08T02:11:07.071Z,17.90
2023-05-08T02:13:37.066Z,17.90
2023-05-08T02:16:08.396Z,18.00
2023-05-08T02:18:41.080Z,18.00
2023-05-08T02:21:12.253Z,17.90
2023-05-08T02:23:42.433Z,17.90
2023-05-08T02:26:11.165Z,17.80
2023-05-08T02:28:40.945Z,17.80
2023-05-08T02:31:11.818Z,17.80
2023-05-08T02:33:45.404Z,17.80
2023-05-08T02:36:21.101Z,17.80
2023-05-08T02:38:53.916Z,17.70
2023-05-08T02:41:28.624Z,17.70
2023-05-08T02:43:57.451Z,17.60
2023-05-08T02:46:30.600Z,17.60
2023-05-08T02:49:05.974Z,17.50
2023-05-08T02:51:45.197Z,17.40
2023-05-08T02:54:23.354Z,17.40
2023-05-08T02:56:59.767Z,17.40
2023-05-08T02:59:36.817Z,17.50
2023-05-08T03:02:11.643Z,17.50
2023-05-08T03:04:49.265Z,17.60
2023-05-08T03:07:20.454Z,17.70
2023-05-08T03:09:53.250Z,17.60
2023-05-08T03:12:24.888Z,17.60
2023-05-08T03:15:01.235Z,17.70
2023-05-08T03:17:33.732Z,17.60
2023-05-08T03:20:06.530Z,17.60
2023-05-08T03:22:38.341Z,17.50
2023-05-08T03:25:12.379Z,17.50
2023-05-08T03:27:42.255Z,17.50
2023-05-08T03:30:13.185Z,17.50
2023-05-08T03:32:46.117Z,17.50
2023-05-08T03:35:17.608Z,17.60
2023-05-08T03:37:46.346Z,17.60
2023-05-08T03:40:16.156Z,17.60
2023-05-08T03:42:45.995Z,17.50
2023-05-08T03:45:17.109Z,17.50
2023-05-08T03:47:48.365Z,17.60
2023-05-08T03:50:18.044Z,17.50
2023-05-08T03:52:47.381Z,17.30
2023-05-08T03:55:15.551Z,17.30
2023-05-08T03:57:52.144Z,17.30
2023-05-08T04:00:26.700Z,17.30
2023-05-08T04:03:15.086Z,17.20
2023-05-08T04:05:52.566Z,17.20
2023-05-08T04:08:26.084Z,17.20
2023-05-08T04:11:07.254Z,17.30
2023-05-08T04:13:41.486Z,17.20
2023-05-08T04:16:17.671Z,17.30
2023-05-08T04:18:51.345Z,17.10
2023-05-08T04:21:25.822Z,17.10
2023-05-08T04:23:58.497Z,17.10
2023-05-08T04:26:29.218Z,17.20
2023-05-08T04:29:00.294Z,17.10
2023-05-08T04:31:29.257Z,17.10
2023-05-08T04:33:59.318Z,17.00
2023-05-08T04:36:31.574Z,17.00
2023-05-08T04:39:02.222Z,17.00
2023-05-08T04:41:31.325Z,17.00
2023-05-08T04:43:59.964Z,17.10
2023-05-08T04:46:28.861Z,17.10
2023-05-08T04:48:57.421Z,17.20
2023-05-08T04:51:26.229Z,17.30
2023-05-08T04:53:55.604Z,17.30
2023-05-08T04:56:24.062Z,17.40
2023-05-08T04:58:52.122Z,17.40
2023-05-08T05:01:20.983Z,17.40
2023-05-08T05:03:49.180Z,17.30
2023-05-08T05:06:18.464Z,17.30
2023-05-08T05:08:46.581Z,17.30
2023-05-08T05:11:16.500Z,17.30
2023-05-08T05:13:45.125Z,17.30
2023-05-08T05:16:14.739Z,17.30
2023-05-08T05:18:42.806Z,17.30
2023-05-08T05:21:11.427Z,17.30
2023-05-08T05:23:39.603Z,17.30
2023-05-08T05:26:07.927Z,17.50
2023-05-08T05:28:38.181Z,17.40
2023-05-08T05:31:07.518Z,17.50
2023-05-08T05:33:35.826Z,17.50
2023-05-08T05:36:04.546Z,17.70
2023-05-08T05:38:32.685Z,17.60
2023-05-08T05:41:01.978Z,17.60
2023-05-08T05:43:30.096Z,17.70
2023-05-08T05:46:05.606Z,17.80
2023-05-08T05:48:34.711Z,17.90
2023-05-08T05:51:04.394Z,18.00
2023-05-08T05:53:32.640Z,18.10
2023-05-08T05:56:03.049Z,18.20
2023-05-08T05:58:34.740Z,18.30
2023-05-08T06:01:05.012Z,18.20
2023-05-08T06:03:33.422Z,18.30
2023-05-08T06:06:01.471Z,18.40
2023-05-08T06:08:29.791Z,18.50
2023-05-08T06:10:58.627Z,18.60
2023-05-08T06:13:28.276Z,18.60
2023-05-08T06:15:57.854Z,18.70
2023-05-08T06:18:29.868Z,18.80
2023-05-08T06:20:58.574Z,18.80
2023-05-08T06:23:26.934Z,18.80
2023-05-08T06:25:55.640Z,19.00
2023-05-08T06:28:25.817Z,19.00
2023-05-08T06:30:56.059Z,19.00
2023-05-08T06:33:26.754Z,19.00
2023-05-08T06:35:57.690Z,18.80
2023-05-08T06:38:26.169Z,18.80
2023-05-08T06:40:55.626Z,18.90
2023-05-08T06:43:23.700Z,18.90
2023-05-08T06:45:53.033Z,18.80
2023-05-08T06:48:21.529Z,18.80
2023-05-08T06:50:50.175Z,18.90
2023-05-08T06:53:20.288Z,18.90
2023-05-08T06:55:49.147Z,18.90
2023-05-08T06:58:17.311Z,18.90
2023-05-08T07:00:46.443Z,18.90
2023-05-08T07:03:14.480Z,18.90
2023-05-08T07:05:42.639Z,19.00
2023-05-08T07:08:11.080Z,19.00
2023-05-08T07:10:41.502Z,19.00
2023-05-08T07:13:09.608Z,19.00
2023-05-08T07:15:38.844Z,19.10
2023-05-08T07:18:08.205Z,19.20
2023-05-08T07:20:36.848Z,19.30
2023-05-08T07:23:04.817Z,19.50
2023-05-08T07:25:34.656Z,19.40
2023-05-08T07:28:04.097Z,19.60
2023-05-08T07:30:34.149Z,19.50
2023-05-08T07:33:02.859Z,19.40
2023-05-08T07:35:31.032Z,19.50
2023-05-08T07:38:00.516Z,19.30
2023-05-08T07:40:28.670Z,19.50
2023-05-08T07:42:56.727Z,19.60
2023-05-08T07:45:27.448Z,19.80
2023-05-08T07:47:57.205Z,19.90
2023-05-08T07:50:26.667Z,19.90
2023-05-08T07:52:54.983Z,19.90
2023-05-08T07:55:23.556Z,19.80
2023-05-08T07:57:51.530Z,19.80
2023-05-08T08:00:19.868Z,19.80
2023-05-08T08:02:50.216Z,19.80
2023-05-08T08:05:18.414Z,19.40
2023-05-08T08:07:46.843Z,19.20
2023-05-08T08:10:15.526Z,19.50
2023-05-08T08:12:43.860Z,19.70
2023-05-08T08:15:12.362Z,19.80
2023-05-08T08:17:41.673Z,19.90
2023-05-08T08:20:12.505Z,19.60
2023-05-08T08:22:40.593Z,19.30
2023-05-08T08:25:10.091Z,19.50
2023-05-08T08:27:38.723Z,19.30
2023-05-08T08:30:16.221Z,19.50
2023-05-08T08:32:47.247Z,19.70
2023-05-08T08:35:17.459Z,19.90
2023-05-08T08:37:45.799Z,19.70
2023-05-08T08:40:14.173Z,19.70
2023-05-08T08:42:47.529Z,19.60
2023-05-08T08:45:16.639Z,19.40
2023-05-08T08:47:46.608Z,19.40
2023-05-08T08:50:22.918Z,19.40
2023-05-08T08:52:57.661Z,19.20
2023-05-08T08:55:27.212Z,18.90
2023-05-08T08:58:23.870Z,18.80
2023-05-08T09:00:54.601Z,18.70
2023-05-08T09:03:22.821Z,18.90
2023-05-08T09:05:52.627Z,19.00
2023-05-08T09:08:21.841Z,18.80
2023-05-08T09:10:51.985Z,18.70
2023-05-08T09:13:20.645Z,18.70
2023-05-08T09:15:49.104Z,18.50
2023-05-08T09:18:18.726Z,18.60
2023-05-08T09:20:47.893Z,19.00
2023-05-08T09:23:18.625Z,19.10
2023-05-08T09:25:49.015Z,18.90
2023-05-08T09:28:19.592Z,18.90
2023-05-08T09:30:53.320Z,18.50
2023-05-08T09:33:22.517Z,19.00
2023-05-08T09:35:53.009Z,19.10
2023-05-08T09:38:41.578Z,19.00
2023-05-08T09:41:12.886Z,19.20
2023-05-08T09:43:43.903Z,19.50
2023-05-08T09:46:24.612Z,19.60
2023-05-08T09:48:55.104Z,18.80
2023-05-08T09:51:24.695Z,19.00
2023-05-08T09:53:56.303Z,19.00
2023-05-08T09:56:36.721Z,19.20
2023-05-08T09:59:07.221Z,18.90
2023-05-08T10:01:37.712Z,18.70
2023-05-08T10:04:06.735Z,18.90
2023-05-08T10:06:36.319Z,18.70
2023-05-08T10:09:12.167Z,18.90
2023-05-08T10:11:42.910Z,19.10
2023-05-08T10:14:12.780Z,19.10
2023-05-08T10:16:45.326Z,19.10
2023-05-08T10:19:16.933Z,18.80
2023-05-08T10:21:48.729Z,18.90
2023-05-08T10:24:19.745Z,18.80
2023-05-08T10:27:06.856Z,18.90
2023-05-08T10:29:53.649Z,18.90
2023-05-08T10:32:25.663Z,18.50
2023-05-08T10:34:56.941Z,18.70
2023-05-08T10:37:25.786Z,18.90
2023-05-08T10:39:58.511Z,19.00
2023-05-08T10:42:28.640Z,18.80
2023-05-08T10:44:58.399Z,18.70
2023-05-08T10:47:44.883Z,18.90
2023-05-08T10:50:29.381Z,18.70
2023-05-08T10:53:04.112Z,18.90
2023-05-08T10:55:37.196Z,18.60
2023-05-08T10:58:07.971Z,19.00
2023-05-08T11:01:14.578Z,19.30
2023-05-08T11:03:51.846Z,19.10
2023-05-08T11:06:47.279Z,19.20
2023-05-08T11:09:21.034Z,19.60
2023-05-08T11:12:09.073Z,19.80
2023-05-08T11:14:40.905Z,20.00
2023-05-08T11:17:10.936Z,20.00
2023-05-08T11:19:40.022Z,20.10
2023-05-08T11:22:30.697Z,20.20
2023-05-08T11:25:05.699Z,20.10
2023-05-08T11:27:38.134Z,20.20
2023-05-08T11:30:24.947Z,19.80
2023-05-08T11:33:15.323Z,20.10
2023-05-08T11:36:15.418Z,19.60
2023-05-08T11:38:44.563Z,18.60
2023-05-08T11:41:23.044Z,18.90
2023-05-08T11:44:14.853Z,18.40
2023-05-08T11:46:49.622Z,18.80
2023-05-08T11:49:23.826Z,19.40
2023-05-08T11:51:57.844Z,19.60
2023-05-08T11:54:32.254Z,19.90
2023-05-08T11:57:01.733Z,20.20
2023-05-08T11:59:37.123Z,20.60
2023-05-08T12:02:09.465Z,20.90
2023-05-08T12:04:47.293Z,21.00
2023-05-08T12:07:16.395Z,21.20
2023-05-08T12:09:44.450Z,21.30
2023-05-08T12:12:12.941Z,21.40
2023-05-08T12:14:42.886Z,21.40
2023-05-08T12:17:11.458Z,21.30
2023-05-08T12:19:40.045Z,21.50
2023-05-08T12:22:11.890Z,21.60
2023-05-08T12:24:40.477Z,21.50
2023-05-08T12:27:13.369Z,21.60
2023-05-08T12:29:46.515Z,21.50
2023-05-08T12:32:15.103Z,21.20
2023-05-08T12:34:44.302Z,21.50
2023-05-08T12:37:12.436Z,21.70
2023-05-08T12:39:46.758Z,21.60
2023-05-08T12:42:15.208Z,21.70
2023-05-08T12:44:53.691Z,21.90
2023-05-08T12:47:22.237Z,21.90
2023-05-08T12:49:50.571Z,21.80
2023-05-08T12:52:19.288Z,21.70
2023-05-08T12:54:49.457Z,21.50
2023-05-08T12:57:22.920Z,21.70
2023-05-08T12:59:51.311Z,21.60
2023-05-08T13:02:24.337Z,21.70
2023-05-08T13:04:56.010Z,21.60
2023-05-08T13:07:24.742Z,21.10
2023-05-08T13:10:02.088Z,21.30
2023-05-08T13:12:32.930Z,21.40
2023-05-08T13:15:01.976Z,21.30
2023-05-08T13:17:31.845Z,21.40
2023-05-08T13:20:06.122Z,21.60
2023-05-08T13:22:34.917Z,21.60
2023-05-08T13:25:04.742Z,20.60
2023-05-08T13:27:32.806Z,20.70
2023-05-08T13:30:00.812Z,20.90
2023-05-08T13:32:32.447Z,21.20
2023-05-08T13:35:13.691Z,21.50
2023-05-08T13:37:42.317Z,21.70
2023-05-08T13:40:12.391Z,21.90
2023-05-08T13:42:40.396Z,22.10
2023-05-08T13:45:11.941Z,22.30
2023-05-08T13:47:43.148Z,22.40
2023-05-08T13:50:13.445Z,22.50
2023-05-08T13:52:41.814Z,22.60
2023-05-08T13:55:12.851Z,22.50
2023-05-08T13:57:42.315Z,22.60
2023-05-08T14:00:16.581Z,22.40
2023-05-08T14:02:46.227Z,22.10
2023-05-08T14:05:15.704Z,22.20
2023-05-08T14:07:46.917Z,22.30
2023-05-08T14:10:17.698Z,22.30
2023-05-08T14:12:46.995Z,22.30
2023-05-08T14:15:17.786Z,22.30
2023-05-08T14:17:48.747Z,22.30
2023-05-08T14:20:17.713Z,22.30
2023-05-08T14:22:47.253Z,22.30
2023-05-08T14:25:16.463Z,22.40
2023-05-08T14:27:44.491Z,22.50
2023-05-08T14:30:15.000Z,22.50
2023-05-08T14:32:44.834Z,22.50
2023-05-08T14:35:17.864Z,22.50
2023-05-08T14:37:46.846Z,22.40
2023-05-08T14:40:15.767Z,22.40
2023-05-08T14:42:45.793Z,22.30
2023-05-08T14:45:13.974Z,22.40
2023-05-08T14:47:42.307Z,22.40
2023-05-08T14:50:11.642Z,22.50
2023-05-08T14:52:43.131Z,22.50
2023-05-08T14:55:21.365Z,22.00
2023-05-08T14:57:49.968Z,22.20
2023-05-08T15:00:19.281Z,22.30
2023-05-08T15:02:48.525Z,22.50
2023-05-08T15:05:19.892Z,22.60
2023-05-08T15:07:51.655Z,22.70
2023-05-08T15:10:19.695Z,22.80
2023-05-08T15:12:47.752Z,22.60
2023-05-08T15:15:17.831Z,22.60
2023-05-08T15:17:45.854Z,22.40
2023-05-08T15:20:14.466Z,22.40
2023-05-08T15:22:43.101Z,22.50
2023-05-08T15:25:13.040Z,22.50
2023-05-08T15:27:46.362Z,22.50
2023-05-08T15:30:15.372Z,22.30
2023-05-08T15:32:43.497Z,22.50
2023-05-08T15:35:12.788Z,22.60
2023-05-08T15:37:41.082Z,22.70
2023-05-08T15:40:10.410Z,22.90
2023-05-08T15:42:40.208Z,22.90
2023-05-08T15:45:09.262Z,22.80
2023-05-08T15:47:39.123Z,22.70
2023-05-08T15:50:08.288Z,22.70
2023-05-08T15:52:37.182Z,22.60
2023-05-08T15:55:05.615Z,22.60
2023-05-08T15:57:34.545Z,22.70
2023-05-08T16:00:04.927Z,22.70
2023-05-08T16:02:35.497Z,22.50
2023-05-08T16:05:04.541Z,22.50
2023-05-08T16:07:33.000Z,22.70
2023-05-08T16:10:01.775Z,22.80
2023-05-08T16:12:30.211Z,22.90
2023-05-08T16:15:00.274Z,23.00
2023-05-08T16:17:29.683Z,23.00
2023-05-08T16:19:58.298Z,23.10
2023-05-08T16:22:26.840Z,23.10
2023-05-08T16:24:54.940Z,23.10
2023-05-08T16:27:23.886Z,23.30
2023-05-08T16:29:52.776Z,23.20
2023-05-08T16:32:22.017Z,23.10
2023-05-08T16:34:52.497Z,23.10
2023-05-08T16:37:20.649Z,22.90
2023-05-08T16:39:49.967Z,22.90
2023-05-08T16:42:18.710Z,23.00
2023-05-08T16:44:48.039Z,22.90
2023-05-08T16:47:16.397Z,22.80
2023-05-08T16:49:45.393Z,22.70
2023-05-08T16:52:14.817Z,22.80
2023-05-08T16:54:42.826Z,22.80
2023-05-08T16:57:11.044Z,22.60
2023-05-08T16:59:39.526Z,22.60
2023-05-08T17:02:08.306Z,22.70
2023-05-08T17:04:38.962Z,22.70
2023-05-08T17:07:07.456Z,22.60
2023-05-08T17:09:36.876Z,22.80
2023-05-08T17:12:05.903Z,22.80
2023-05-08T17:14:35.095Z,22.80
2023-05-08T17:17:03.982Z,22.70
2023-05-08T17:19:32.960Z,22.70
2023-05-08T17:22:01.519Z,22.80
2023-05-08T17:24:30.737Z,22.90
2023-05-08T17:27:01.102Z,22.60
2023-05-08T17:29:29.093Z,22.70
2023-05-08T17:31:58.952Z,22.70
2023-05-08T17:34:27.331Z,22.60
2023-05-08T17:36:55.661Z,22.60
2023-05-08T17:39:24.714Z,22.60
2023-05-08T17:41:54.423Z,22.60
2023-05-08T17:44:23.862Z,22.40
2023-05-08T17:46:52.825Z,22.50
2023-05-08T17:49:21.351Z,22.40
2023-05-08T17:51:49.965Z,22.40
2023-05-08T17:54:18.236Z,22.40
2023-05-08T17:56:46.653Z,22.40
2023-05-08T17:59:15.277Z,22.40
2023-05-08T18:01:44.872Z,22.40
2023-05-08T18:04:16.898Z,22.40
2023-05-08T18:06:47.436Z,22.40
2023-05-08T18:09:15.955Z,22.40
2023-05-08T18:11:44.194Z,22.40
2023-05-08T18:14:12.289Z,22.40
2023-05-08T18:16:41.431Z,22.30
2023-05-08T18:19:11.180Z,22.30
2023-05-08T18:21:39.258Z,22.30
2023-05-08T18:24:10.586Z,22.20
2023-05-08T18:26:39.771Z,22.20
2023-05-08T18:29:07.805Z,22.10
2023-05-08T18:31:35.950Z,21.80
2023-05-08T18:34:05.252Z,21.80
2023-05-08T18:36:34.927Z,21.80
2023-05-08T18:39:03.671Z,21.70
2023-05-08T18:41:31.904Z,21.60
2023-05-08T18:44:02.967Z,21.60
2023-05-08T18:46:34.709Z,21.30
2023-05-08T18:49:03.252Z,21.10
2023-05-08T18:51:31.724Z,20.30
2023-05-08T18:54:01.621Z,20.20
2023-05-08T18:56:29.747Z,20.00
2023-05-08T18:58:59.918Z,20.30
2023-05-08T19:01:28.062Z,20.20
2023-05-08T19:03:57.167Z,20.20
2023-05-08T19:06:25.524Z,20.40
2023-05-08T19:08:53.897Z,19.90
2023-05-08T19:11:24.120Z,19.80
2023-05-08T19:13:52.135Z,19.80
2023-05-08T19:16:21.522Z,20.10
2023-05-08T19:18:50.649Z,20.60
2023-05-08T19:21:19.638Z,20.40
2023-05-08T19:23:48.135Z,20.20
2023-05-08T19:26:16.190Z,20.40
2023-05-08T19:28:46.295Z,20.70
2023-05-08T19:31:14.818Z,20.80
2023-05-08T19:33:43.497Z,20.90
2023-05-08T19:36:12.755Z,21.10
2023-05-08T19:38:40.941Z,21.20
2023-05-08T19:41:09.414Z,21.20
2023-05-08T19:43:37.490Z,21.20
2023-05-08T19:46:06.953Z,21.30
2023-05-08T19:48:35.620Z,21.30
2023-05-08T19:51:07.157Z,21.30
2023-05-08T19:53:36.969Z,21.30
2023-05-08T19:56:05.346Z,21.20
2023-05-08T19:58:33.710Z,21.20
2023-05-08T20:01:05.978Z,21.20
2023-05-08T20:03:35.038Z,21.10
2023-05-08T20:06:03.269Z,21.10
2023-05-08T20:08:32.046Z,21.00
2023-05-08T20:11:03.261Z,21.10
2023-05-08T20:13:34.451Z,21.00
2023-05-08T20:16:02.518Z,20.90
2023-05-08T20:18:31.881Z,20.80
2023-05-08T20:21:01.062Z,20.80
2023-05-08T20:23:29.144Z,20.80
2023-05-08T20:25:57.704Z,20.70
2023-05-08T20:28:29.752Z,20.70
2023-05-08T20:30:58.319Z,20.60
2023-05-08T20:33:26.364Z,20.60
2023-05-08T20:35:57.763Z,20.60
2023-05-08T20:38:27.093Z,20.60
2023-05-08T20:40:59.370Z,20.50
2023-05-08T20:43:29.885Z,20.50
2023-05-08T20:46:00.279Z,20.40
2023-05-08T20:48:28.415Z,20.40
2023-05-08T20:50:58.007Z,20.40
2023-05-08T20:53:26.319Z,20.40
2023-05-08T20:56:01.520Z,20.40
2023-05-08T20:58:29.860Z,20.40
2023-05-08T21:00:57.990Z,20.40
2023-05-08T21:03:28.681Z,20.40
2023-05-08T21:05:58.093Z,20.30
2023-05-08T21:08:27.282Z,20.30
2023-05-08T21:10:56.022Z,20.30
2023-05-08T21:13:25.106Z,20.30
2023-05-08T21:15:53.653Z,20.30
2023-05-08T21:18:23.125Z,20.40
2023-05-08T21:20:51.258Z,20.30
2023-05-08T21:23:24.096Z,20.30
2023-05-08T21:25:52.980Z,20.30
2023-05-08T21:28:21.540Z,20.30
2023-05-08T21:30:49.578Z,20.30
2023-05-08T21:33:18.762Z,20.40
2023-05-08T21:35:48.905Z,20.40
2023-05-08T21:38:16.918Z,20.30
2023-05-08T21:40:46.727Z,20.30
2023-05-08T21:43:15.460Z,20.30
2023-05-08T21:45:43.440Z,20.40
2023-05-08T21:48:12.198Z,20.40
2023-05-08T21:50:40.181Z,20.30
2023-05-08T21:53:08.361Z,20.30
2023-05-08T21:55:36.454Z,20.20
2023-05-08T21:58:06.870Z,20.10
2023-05-08T22:00:35.121Z,20.10
2023-05-08T22:03:03.733Z,20.20
2023-05-08T22:05:33.481Z,20.20
2023-05-08T22:08:01.999Z,20.20
2023-05-08T22:10:31.068Z,20.20
2023-05-08T22:13:00.464Z,20.20
2023-05-08T22:15:31.139Z,20.20
2023-05-08T22:18:02.377Z,20.40
2023-05-08T22:20:32.175Z,20.20
2023-05-08T22:23:00.262Z,20.10
2023-05-08T22:25:28.542Z,20.10
2023-05-08T22:27:56.650Z,20.10
2023-05-08T22:30:25.268Z,20.00
2023-05-08T22:32:59.401Z,20.00
2023-05-08T22:35:29.061Z,19.90
2023-05-08T22:38:01.057Z,19.80
2023-05-08T22:40:31.260Z,19.90
2023-05-08T22:43:00.032Z,20.00
2023-05-08T22:45:29.226Z,20.00
2023-05-08T22:47:58.815Z,19.90
2023-05-08T22:50:27.656Z,20.00
2023-05-08T22:52:55.927Z,20.00
2023-05-08T22:55:25.043Z,19.80
2023-05-08T22:57:53.067Z,19.90
2023-05-08T23:00:21.723Z,20.00
2023-05-08T23:02:50.632Z,20.00
2023-05-08T23:05:20.621Z,20.10
2023-05-08T23:07:53.596Z,20.30
2023-05-08T23:10:22.177Z,20.30
2023-05-08T23:12:50.723Z,20.10
2023-05-08T23:15:20.935Z,20.10
2023-05-08T23:18:11.162Z,20.10
2023-05-08T23:20:40.597Z,20.10
2023-05-08T23:23:08.692Z,20.10
2023-05-08T23:25:37.578Z,20.20
2023-05-08T23:28:05.634Z,20.20
2023-05-08T23:30:33.869Z,20.20
2023-05-08T23:33:02.374Z,20.20
2023-05-08T23:35:31.153Z,20.10
2023-05-08T23:38:01.438Z,20.10
2023-05-08T23:40:31.830Z,20.20
2023-05-08T23:43:00.225Z,20.10
2023-05-08T23:45:30.615Z,20.10
2023-05-08T23:47:58.868Z,20.00
2023-05-08T23:50:26.908Z,20.00
2023-05-08T23:52:55.958Z,20.00
2023-05-08T23:55:27.072Z,19.80
2023-05-08T23:57:56.086Z,19.80
